CheckWX is a tool to help pilots better visualize weather data.  It is not intended as a substitute for an official pre-flight weather briefing.

00:22:17 UTC

46U METAR
Alpine Airport
Alpine, Wyoming, USA
Current

27 mins ago

K46U 252355Z AUTO 00000KT 10SM CLR 06/M05 A3026 RMK A01
Observed
Mar-25 @ 23:55 UTC
Visibility
10 SM
Flight Rules
VFR
Cloud Levels
  • Clear skies
Temperature
C / 43°F
Dewpoint
-5°C / 23°F
Humidity
46%
Altimeter
30.26" Hg
Pressure
1024.72 hPa
Previous

47 mins ago

K46U 252335Z AUTO 16003KT 10SM CLR 07/M05 A3026 RMK A01
Observed
Mar-25 @ 23:35 UTC
Wind
  • 160° at 3 KTS
Visibility
10 SM
Flight Rules
VFR
Cloud Levels
  • Clear skies
Temperature
C / 45°F
Dewpoint
-5°C / 23°F
Humidity
42%
Altimeter
30.26" Hg
Pressure
1024.72 hPa
Previous

1 hour ago

K46U 252315Z AUTO 17004KT 10SM CLR 06/M04 A3027 RMK A01
Observed
Mar-25 @ 23:15 UTC
Wind
  • 170° at 4 KTS
Visibility
10 SM
Flight Rules
VFR
Cloud Levels
  • Clear skies
Temperature
C / 43°F
Dewpoint
-4°C / 25°F
Humidity
49%
Altimeter
30.27" Hg
Pressure
1025.02 hPa